Time;durP1;ratioP1;P1;durP2;ratioP2;P2;SDS_P1;SDS_P2;PMS_P1;PMS_P2;Temp;Humidity;BMP_temperature;BMP_pressure;BME280_temperature;BME280_humidity;BME280_pressure;Samples;Min_cycle;Max_cycle;Signal;HPM_P1;HPM_P2
2023/02/07 00:00:47;;;;;;;;;;;;;;;;;;;;;
2023/02/07 00:03:42;;;;;;;;;;;;;;;;;;;;;
2023/02/07 00:06:39;;;;;;;;;10.50;10.50;;;;;6.33;58.54;103154.00;5037381;28;72129;-66
2023/02/07 00:09:20;;;;;;;;;8.50;6.25;;;;;6.20;59.07;103135.16;5023330;28;45554;-66
2023/02/07 00:11:51;;;;;;;;;11.25;10.50;;;;;6.16;58.56;103124.41;5025129;28;45315;-66
2023/02/07 00:14:30;;;;;;;;;11.50;9.25;;;;;6.11;58.81;103109.31;5046142;28;48102;-67
2023/02/07 00:17:08;;;;;;;;;11.25;11.00;;;;;6.35;59.18;103150.53;5034509;28;45651;-67
2023/02/07 00:19:38;;;;;;;;;11.25;11.25;;;;;6.29;59.17;103137.13;5025824;28;45538;-66
2023/02/07 00:22:23;;;;;;;;;10.50;9.50;;;;;6.13;59.22;103117.28;5032025;28;45473;-66
2023/02/07 00:25:10;;;;;;;;;;;;;;;;;;;;;
2023/02/07 00:27:56;;;;;;;;;;;;;;;;;;;;;
2023/02/07 00:30:42;;;;;;;;;;;;;;;;;;;;;
2023/02/07 00:33:10;;;;;;;;;17.50;10.75;;;;;6.21;58.92;103114.81;5019453;28;72687;-66
2023/02/07 00:35:56;;;;;;;;;;;;;;;;;;;;;
2023/02/07 00:38:40;;;;;;;;;;;;;;;;;;;;;
2023/02/07 00:41:12;;;;;;;;;13.25;9.50;;;;;6.08;59.21;103103.00;5028969;28;68689;-66
2023/02/07 00:43:48;;;;;;;;;18.00;13.50;;;;;6.12;59.19;103110.19;5028482;28;45346;-66
2023/02/07 00:46:16;;;;;;;;;10.75;10.75;;;;;6.09;58.75;103104.81;5036533;28;47219;-66
2023/02/07 00:48:55;;;;;;;;;;;;;;;;;;;;;
2023/02/07 00:51:28;;;;;;;;;15.00;15.00;;;;;6.10;58.40;103099.53;5025007;28;68043;-66
2023/02/07 00:54:22;;;;;;;;;10.75;10.75;;;;;6.11;58.72;103105.75;5025920;28;45512;-66
2023/02/07 00:56:53;;;;;;;;;11.00;9.75;;;;;5.85;59.26;103086.53;5035217;28;47057;-66
2023/02/07 00:59:26;;;;;;;;;7.50;7.50;;;;;6.16;58.95;103129.72;5034910;28;45428;-66
2023/02/07 01:02:01;;;;;;;;;14.50;9.25;;;;;5.99;59.14;103113.41;5029614;28;45392;-66
2023/02/07 01:04:34;;;;;;;;;7.00;7.00;;;;;5.92;58.69;103086.69;5026521;28;45671;-66
2023/02/07 01:07:12;;;;;;;;;14.50;11.75;;;;;6.21;59.50;103136.91;5029198;28;46591;-66
2023/02/07 01:10:09;;;;;;;;;12.75;10.00;;;;;6.16;58.42;103127.94;5028256;28;45503;-66
2023/02/07 01:12:53;;;;;;;;;14.75;10.50;;;;;6.10;58.96;103125.19;5029744;28;45697;-66
2023/02/07 01:15:29;;;;;;;;;;;;;;;;;;;;;
2023/02/07 01:18:06;;;;;;;;;9.75;9.75;;;;;6.08;58.76;103134.81;5030705;28;74443;-66
2023/02/07 01:20:48;;;;;;;;;13.75;13.75;;;;;5.95;59.35;103099.16;5023364;28;45527;-66
2023/02/07 01:23:42;;;;;;;;;13.00;11.00;;;;;5.79;59.35;103067.81;5020105;28;45418;-66
2023/02/07 01:26:17;;;;;;;;;;;;;;;;;;;;;
2023/02/07 01:29:01;;;;;;;;;;;;;;;;;;;;;
2023/02/07 01:31:34;;;;;;;;;16.50;14.00;;;;;6.08;59.02;103125.13;5017906;28;72957;-66
2023/02/07 01:34:07;;;;;;;;;15.50;14.00;;;;;5.90;59.50;103098.13;5033282;28;45342;-66
2023/02/07 01:37:00;;;;;;;;;22.25;19.50;;;;;5.84;59.20;103093.56;5034061;28;45366;-66
2023/02/07 01:39:38;;;;;;;;;19.50;17.50;;;;;5.79;59.87;103071.34;5029878;28;46870;-66
2023/02/07 01:42:16;;;;;;;;;18.00;15.00;;;;;5.77;58.80;103074.84;5033617;28;45264;-66
2023/02/07 01:44:58;;;;;;;;;23.25;17.00;;;;;6.01;58.70;103116.97;5035965;28;45366;-66
2023/02/07 01:47:52;;;;;;;;;;;;;;;;;;;;;
2023/02/07 01:53:21;;;;;;;;;;;;;;;;;;;;;
2023/02/07 01:56:01;;;;;;;;;10.25;10.25;;;;;5.69;59.13;103064.91;5028395;28;68738;-66
2023/02/07 01:59:17;;;;;;;;;11.50;10.00;;;;;5.66;59.34;103072.78;5026509;28;45299;-66
2023/02/07 02:02:17;;;;;;;;;;;;;;;;;;;;;
2023/02/07 02:04:55;;;;;;;;;;;;;;;;;;;;;
2023/02/07 02:07:32;;;;;;;;;;;;;;;;;;;;;
2023/02/07 02:10:12;;;;;;;;;12.00;12.00;;;;;5.43;59.49;103066.94;5031314;28;74179;-66
2023/02/07 02:13:02;;;;;;;;;;;;;;;;;;;;;
2023/02/07 02:15:59;;;;;;;;;;;;;;;;;;;;;
2023/02/07 02:18:41;;;;;;;;;;;;;;;;;;;;;
2023/02/07 02:22:02;;;;;;;;;16.00;13.50;;;;;5.62;59.75;103101.84;5032890;28;71917;-66
2023/02/07 02:25:12;;;;;;;;;9.00;7.50;;;;;5.50;59.74;103065.34;5027864;28;46348;-66
2023/02/07 02:27:56;;;;;;;;;11.50;10.75;;;;;5.67;60.51;103092.25;5018585;28;45235;-66
2023/02/07 02:30:37;;;;;;;;;12.00;11.25;;;;;5.66;59.70;103091.34;5026085;28;45520;-66
2023/02/07 02:33:13;;;;;;;;;5.25;5.25;;;;;5.65;59.79;103089.56;5020036;28;45338;-66
2023/02/07 02:35:41;;;;;;;;;10.25;9.50;;;;;5.63;60.17;103077.13;5031961;28;45543;-66
2023/02/07 02:38:35;;;;;;;;;14.00;12.00;;;;;5.57;59.85;103075.22;5037037;28;45834;-66
2023/02/07 02:41:13;;;;;;;;;11.00;11.00;;;;;5.47;59.87;103071.44;5029333;28;45318;-66
2023/02/07 02:43:44;;;;;;;;;13.25;12.50;;;;;5.51;60.09;103085.66;5027830;28;45516;-66
2023/02/07 02:46:33;;;;;;;;;9.75;8.00;;;;;5.48;60.38;103090.84;5026567;28;46752;-66
2023/02/07 02:49:00;;;;;;;;;15.00;12.50;;;;;5.34;60.45;103080.78;5031750;28;45452;-66
2023/02/07 02:51:30;;;;;;;;;13.00;10.00;;;;;5.39;60.80;103100.34;5037287;28;45440;-66
2023/02/07 02:53:57;;;;;;;;;16.50;10.00;;;;;5.27;60.65;103077.97;5036986;28;45574;-66
2023/02/07 02:56:44;;;;;;;;;12.00;11.25;;;;;5.32;61.42;103089.56;5030916;28;46641;-66
2023/02/07 02:59:34;;;;;;;;;15.00;9.00;;;;;5.32;61.14;103101.06;5025290;28;45437;-66
2023/02/07 03:02:03;;;;;;;;;16.75;13.50;;;;;5.29;60.83;103108.03;5021165;28;45744;-66
2023/02/07 03:04:54;;;;;;;;;17.50;14.75;;;;;5.26;60.43;103089.41;5035474;28;45420;-66
2023/02/07 03:07:28;;;;;;;;;13.00;10.00;;;;;5.26;60.41;103092.97;5024350;28;46417;-66
2023/02/07 03:10:12;;;;;;;;;12.75;11.00;;;;;5.33;60.29;103086.03;5033866;28;45681;-66
2023/02/07 03:12:46;;;;;;;;;11.25;9.00;;;;;5.32;60.74;103086.94;5025854;28;45529;-66
2023/02/07 03:15:28;;;;;;;;;14.00;12.50;;;;;5.05;60.77;103032.38;5035282;28;45629;-66
2023/02/07 03:18:17;;;;;;;;;12.00;11.25;;;;;5.22;61.26;103050.47;5024904;28;46488;-66
2023/02/07 03:20:53;;;;;;;;;16.00;11.00;;;;;5.35;61.01;103063.19;5040512;28;45494;-66
2023/02/07 03:23:20;;;;;;;;;14.00;11.75;;;;;5.31;60.43;103058.63;5023063;28;45315;-66
2023/02/07 03:25:48;;;;;;;;;12.25;9.75;;;;;5.20;60.77;103051.31;5036197;28;45567;-66
2023/02/07 03:28:17;;;;;;;;;14.25;12.00;;;;;5.25;61.27;103067.31;5020974;28;46390;-66
2023/02/07 03:30:47;;;;;;;;;10.50;10.00;;;;;5.15;60.49;103063.53;5026931;28;45451;-66
2023/02/07 03:33:14;;;;;;;;;16.75;13.00;;;;;5.05;60.31;103056.19;5022310;28;45409;-66
2023/02/07 03:35:45;;;;;;;;;11.25;11.25;;;;;5.21;61.28;103083.97;5031697;28;46077;-66
2023/02/07 03:38:12;;;;;;;;;11.25;10.25;;;;;5.15;60.92;103079.41;5036115;28;45361;-66
2023/02/07 03:40:44;;;;;;;;;14.50;11.50;;;;;5.12;60.73;103063.44;5035708;28;45511;-66
2023/02/07 03:43:17;;;;;;;;;14.50;13.00;;;;;5.17;61.05;103084.75;5036687;28;45790;-66
2023/02/07 03:45:42;;;;;;;;;14.50;10.75;;;;;5.14;61.32;103097.91;5031672;28;45390;-66
2023/02/07 03:48:08;;;;;;;;;9.50;9.50;;;;;5.02;61.34;103077.28;5028465;28;45995;-66
2023/02/07 03:50:33;;;;;;;;;16.25;15.00;;;;;4.97;61.30;103073.59;5025709;28;45386;-66
2023/02/07 03:52:59;;;;;;;;;18.75;10.50;;;;;4.91;61.40;103068.13;5037428;28;45417;-66
2023/02/07 03:55:24;;;;;;;;;16.75;14.75;;;;;4.80;61.21;103059.91;5027548;28;46232;-66
2023/02/07 03:57:49;;;;;;;;;13.00;11.00;;;;;5.02;61.17;103093.16;5032490;28;46329;-66
2023/02/07 04:00:15;;;;;;;;;13.50;12.75;;;;;4.99;61.82;103079.84;5020499;28;45335;-67
2023/02/07 04:02:40;;;;;;;;;13.50;12.50;;;;;4.90;61.75;103061.94;5032085;28;46333;-66
2023/02/07 04:05:06;;;;;;;;;11.00;10.25;;;;;5.15;61.71;103108.53;5024688;28;45430;-66
2023/02/07 04:07:31;;;;;;;;;13.75;12.00;;;;;4.98;60.97;103067.47;5037859;28;46228;-66
2023/02/07 04:09:57;;;;;;;;;12.50;10.75;;;;;5.18;61.02;103100.69;5032011;28;45526;-66
2023/02/07 04:12:22;;;;;;;;;13.00;11.75;;;;;5.09;61.55;103089.81;5027247;28;45422;-66
2023/02/07 04:14:47;;;;;;;;;16.75;12.75;;;;;5.07;60.90;103085.34;5037286;28;45282;-66
2023/02/07 04:17:13;;;;;;;;;14.50;13.00;;;;;5.18;60.82;103105.09;5037767;28;46519;-66
2023/02/07 04:19:38;;;;;;;;;12.50;12.50;;;;;5.12;61.49;103091.69;5022981;28;45311;-66
2023/02/07 04:22:03;;;;;;;;;13.25;11.75;;;;;5.12;61.38;103087.25;5032074;28;45393;-66
2023/02/07 04:24:31;;;;;;;;;13.75;11.50;;;;;5.00;61.28;103069.28;5018203;28;45549;-66
2023/02/07 04:26:57;;;;;;;;;11.00;10.00;;;;;5.05;60.85;103087.97;5030490;28;46257;-66
2023/02/07 04:29:22;;;;;;;;;13.75;10.75;;;;;5.01;61.33;103112.53;5025607;28;45422;-66
2023/02/07 04:31:48;;;;;;;;;16.50;9.75;;;;;4.90;61.38;103111.34;5025910;28;45439;-66
2023/02/07 04:34:13;;;;;;;;;10.00;8.75;;;;;4.70;61.57;103086.94;5032072;28;45912;-66
2023/02/07 04:36:38;;;;;;;;;14.25;14.25;;;;;4.83;61.51;103120.84;5037529;28;46283;-66
2023/02/07 04:39:04;;;;;;;;;13.00;11.25;;;;;4.79;61.21;103104.00;5037872;28;45671;-66
2023/02/07 04:41:29;;;;;;;;;11.50;10.00;;;;;4.76;61.10;103098.63;5037514;28;45520;-66
2023/02/07 04:43:54;;;;;;;;;12.00;10.00;;;;;4.83;61.09;103110.28;5032414;28;45282;-66
2023/02/07 04:46:20;;;;;;;;;16.00;13.50;;;;;4.59;61.85;103076.03;5035695;28;46603;-66
2023/02/07 04:48:47;;;;;;;;;15.00;9.75;;;;;4.57;61.34;103083.91;5024074;28;45353;-66
2023/02/07 04:51:13;;;;;;;;;10.25;8.75;;;;;4.79;61.63;103111.03;5038705;28;45293;-66
2023/02/07 04:53:38;;;;;;;;;10.25;8.50;;;;;4.78;61.50;103115.44;5025435;28;45390;-66
2023/02/07 04:56:04;;;;;;;;;14.50;11.75;;;;;4.74;61.68;103102.94;5027887;28;47066;-66
2023/02/07 04:58:29;;;;;;;;;12.50;10.75;;;;;4.74;61.38;103112.63;5030927;28;45439;-66
2023/02/07 05:00:54;;;;;;;;;13.50;10.25;;;;;4.73;61.50;103118.78;5028175;28;45654;-66
2023/02/07 05:03:20;;;;;;;;;16.75;9.25;;;;;4.60;61.89;103097.25;5027911;28;45461;-66
2023/02/07 05:05:45;;;;;;;;;13.75;12.00;;;;;4.70;61.54;103113.41;5032242;28;45401;-66
2023/02/07 05:08:12;;;;;;;;;12.50;9.50;;;;;4.57;61.68;103083.91;5030636;28;45382;-66
2023/02/07 05:10:38;;;;;;;;;8.75;8.00;;;;;4.67;62.08;103098.31;5055161;28;45328;-66
2023/02/07 05:13:04;;;;;;;;;13.50;10.00;;;;;4.72;61.59;103111.69;5029348;28;46677;-66
2023/02/07 05:15:30;;;;;;;;;14.75;11.25;;;;;4.75;62.41;103112.69;5036830;28;46508;-66
2023/02/07 05:17:55;;;;;;;;;14.75;10.75;;;;;4.74;61.68;103118.81;5032821;28;45338;-66
2023/02/07 05:20:22;;;;;;;;;13.50;9.00;;;;;4.66;61.77;103104.50;5038389;28;45594;-66
2023/02/07 05:22:47;;;;;;;;;12.75;11.50;;;;;4.71;61.68;103126.69;5029786;28;45402;-66
2023/02/07 05:25:13;;;;;;;;;9.75;9.75;;;;;4.78;61.10;103139.25;5035571;28;45327;-66
2023/02/07 05:27:38;;;;;;;;;15.25;13.75;;;;;4.81;62.33;103136.69;5028463;28;45552;-66
2023/02/07 05:30:05;;;;;;;;;16.50;13.25;;;;;4.61;61.30;103090.19;5019819;28;45590;-66
2023/02/07 05:35:14;;;;;;;;;14.25;11.25;;;;;4.80;60.95;103142.81;5037833;28;45479;-66
2023/02/07 05:37:40;;;;;;;;;11.00;8.00;;;;;4.72;61.36;103127.56;5031705;28;45505;-66
2023/02/07 05:40:06;;;;;;;;;16.00;13.00;;;;;4.69;61.60;103128.34;5039311;28;45605;-66
2023/02/07 05:42:31;;;;;;;;;8.25;8.25;;;;;4.51;61.61;103090.78;5023547;28;45539;-66
2023/02/07 05:44:57;;;;;;;;;12.50;12.00;;;;;4.51;60.61;103086.41;5028232;28;45748;-66
2023/02/07 05:47:23;;;;;;;;;12.50;11.50;;;;;4.68;61.99;103115.09;5034873;28;45436;-66
2023/02/07 05:49:48;;;;;;;;;14.75;10.00;;;;;4.46;60.83;103088.00;5026664;28;45527;-66
2023/02/07 05:52:13;;;;;;;;;16.50;13.00;;;;;4.47;61.02;103099.47;5021167;28;45509;-66
2023/02/07 05:54:39;;;;;;;;;21.25;12.75;;;;;4.53;62.04;103128.78;5036562;28;45810;-66
2023/02/07 05:57:04;;;;;;;;;15.50;10.00;;;;;4.30;62.22;103097.19;5033404;28;45504;-66
2023/02/07 05:59:29;;;;;;;;;16.75;11.50;;;;;4.53;61.55;103136.72;5026561;28;45351;-66
2023/02/07 06:01:55;;;;;;;;;11.00;11.00;;;;;4.57;61.84;103125.34;5025285;28;45803;-66
2023/02/07 06:04:20;;;;;;;;;13.25;11.50;;;;;4.61;61.63;103143.09;5023422;28;45448;-66
2023/02/07 06:06:46;;;;;;;;;16.50;12.00;;;;;4.58;61.94;103136.00;5029706;28;45307;-66
2023/02/07 06:09:11;;;;;;;;;13.00;11.50;;;;;4.50;61.64;103134.84;5033089;28;45433;-66
2023/02/07 06:11:36;;;;;;;;;15.25;12.00;;;;;4.47;61.67;103137.41;5031800;28;45489;-66
2023/02/07 06:14:02;;;;;;;;;16.00;12.00;;;;;4.50;61.33;103148.06;5020450;28;47233;-66
2023/02/07 06:16:27;;;;;;;;;12.25;12.00;;;;;4.45;62.06;103144.38;5028117;28;45328;-66
2023/02/07 06:18:52;;;;;;;;;12.25;10.50;;;;;4.40;61.10;103136.31;5030975;28;45346;-66
2023/02/07 06:21:18;;;;;;;;;13.00;12.00;;;;;4.44;61.80;103153.16;5032691;28;45606;-66
2023/02/07 06:23:45;;;;;;;;;11.00;11.00;;;;;4.22;62.31;103133.97;5020966;28;46254;-67
2023/02/07 06:26:11;;;;;;;;;13.75;11.50;;;;;4.18;61.73;103110.94;5025353;28;45671;-66
2023/02/07 06:28:36;;;;;;;;;6.25;5.50;;;;;4.27;61.59;103136.75;5019931;28;45531;-66
2023/02/07 06:31:02;;;;;;;;;16.25;13.00;;;;;4.30;61.61;103141.25;5033323;28;46634;-66
2023/02/07 06:33:27;;;;;;;;;13.50;11.75;;;;;4.26;61.23;103138.53;5027574;28;46064;-66
2023/02/07 06:35:54;;;;;;;;;16.50;13.00;;;;;4.34;61.70;103154.59;5028649;28;45986;-66
2023/02/07 06:38:20;;;;;;;;;13.50;11.75;;;;;4.35;61.25;103166.09;5031250;28;45382;-66
2023/02/07 06:40:47;;;;;;;;;11.75;9.50;;;;;4.24;61.65;103144.59;5046622;28;45728;-66
2023/02/07 06:43:13;;;;;;;;;8.25;8.25;;;;;4.26;61.53;103167.59;5026645;28;45418;-65
2023/02/07 06:45:38;;;;;;;;;14.75;11.50;;;;;4.05;61.55;103138.72;5031047;28;45770;-66
2023/02/07 06:48:04;;;;;;;;;13.00;9.25;;;;;4.21;61.35;103168.28;5024511;28;45580;-64
2023/02/07 06:50:30;;;;;;;;;17.25;12.00;;;;;4.10;61.97;103156.47;5036817;28;45459;-66
2023/02/07 06:53:00;;;;;;;;;12.25;10.00;;;;;4.07;62.18;103155.50;5027235;28;47132;-65
2023/02/07 06:55:40;;;;;;;;;13.00;11.00;;;;;4.22;61.23;103191.25;5035110;28;45788;-65
2023/02/07 06:59:20;;;;;;;;;;;;;;;;;;;;;
2023/02/07 07:04:49;;;;;;;;;13.00;10.25;;;;;4.14;61.26;103139.84;5015959;28;46068;-66
2023/02/07 07:07:14;;;;;;;;;14.50;13.50;;;;;4.27;61.49;103173.78;5036285;28;47221;-66
2023/02/07 07:09:39;;;;;;;;;13.00;10.25;;;;;4.28;61.31;103188.81;5030817;28;45440;-67
2023/02/07 07:12:05;;;;;;;;;14.00;12.25;;;;;4.23;61.16;103182.47;5032558;28;46070;-65
2023/02/07 07:14:31;;;;;;;;;15.25;12.00;;;;;4.27;61.63;103192.28;5016385;28;47485;-66
2023/02/07 07:16:59;;;;;;;;;13.75;11.75;;;;;4.31;61.83;103206.50;5033966;28;45497;-66
2023/02/07 07:19:24;;;;;;;;;12.00;11.75;;;;;4.05;61.25;103173.06;5039333;28;45360;-66
2023/02/07 07:21:50;;;;;;;;;8.00;7.50;;;;;4.07;60.83;103176.66;5029239;28;45517;-66
2023/02/07 07:24:15;;;;;;;;;10.75;10.75;;;;;3.96;61.29;103163.91;5030217;28;46364;-66
2023/02/07 07:26:43;;;;;;;;;16.00;14.25;;;;;4.08;61.65;103186.38;5034658;28;45370;-66
2023/02/07 07:29:09;;;;;;;;;12.00;11.00;;;;;3.97;61.48;103177.19;5037818;28;45477;-66
2023/02/07 07:31:34;;;;;;;;;13.75;9.00;;;;;4.07;62.07;103187.22;5038777;28;45370;-66
2023/02/07 07:33:59;;;;;;;;;18.50;12.50;;;;;4.12;61.57;103191.78;5038747;28;45400;-66
2023/02/07 07:36:27;;;;;;;;;11.00;10.25;;;;;4.10;61.77;103182.91;5035801;28;45560;-66
2023/02/07 07:38:52;;;;;;;;;21.00;15.25;;;;;4.16;61.42;103205.16;5035531;28;45470;-66
2023/02/07 07:41:18;;;;;;;;;11.00;11.00;;;;;4.12;61.28;103184.75;5038211;28;45389;-67
2023/02/07 07:43:43;;;;;;;;;16.50;13.00;;;;;4.10;61.50;103185.56;5036908;28;45318;-67
2023/02/07 07:46:16;;;;;;;;;13.50;12.25;;;;;4.09;60.96;103187.28;5031841;28;45554;-67
2023/02/07 07:48:41;;;;;;;;;10.25;10.25;;;;;3.90;61.84;103165.50;5029670;28;45458;-66
2023/02/07 07:51:07;;;;;;;;;13.25;10.00;;;;;3.89;61.01;103173.38;5034967;28;45336;-67
2023/02/07 07:53:32;;;;;;;;;11.00;10.25;;;;;4.07;61.32;103205.72;5030481;28;46243;-67
2023/02/07 07:55:57;;;;;;;;;12.25;10.00;;;;;4.12;61.49;103212.94;5033018;28;45352;-67
2023/02/07 07:58:24;;;;;;;;;12.25;12.25;;;;;3.99;61.36;103194.03;5055759;28;45796;-67
2023/02/07 08:00:50;;;;;;;;;12.25;9.25;;;;;4.02;60.69;103194.09;5031273;28;45615;-67
2023/02/07 08:03:18;;;;;;;;;12.00;11.00;;;;;4.15;60.90;103200.72;5033740;28;45682;-68
2023/02/07 08:05:47;;;;;;;;;12.25;12.25;;;;;4.15;61.16;103199.81;5037627;28;45764;-68
2023/02/07 08:08:13;;;;;;;;;12.75;9.75;;;;;4.13;60.68;103207.69;5021918;28;45306;-67
2023/02/07 08:10:41;;;;;;;;;16.50;14.50;;;;;4.13;61.31;103204.16;5051466;28;45681;-67
2023/02/07 08:13:07;;;;;;;;;14.50;12.25;;;;;4.15;60.88;103218.31;5020772;28;48339;-67
2023/02/07 08:15:33;;;;;;;;;16.50;10.50;;;;;4.04;60.89;103197.72;5028367;28;45608;-67
2023/02/07 08:17:58;;;;;;;;;12.00;9.75;;;;;3.86;61.02;103184.75;5027420;28;45411;-67
2023/02/07 08:20:26;;;;;;;;;10.00;10.00;;;;;3.99;60.89;103209.88;5030869;28;45540;-67
2023/02/07 08:22:52;;;;;;;;;12.50;9.00;;;;;3.88;60.97;103192.75;5020867;28;46597;-67
2023/02/07 08:25:17;;;;;;;;;11.25;9.25;;;;;4.02;60.85;103222.28;5034375;28;45512;-67
2023/02/07 08:27:43;;;;;;;;;11.50;10.25;;;;;3.87;60.88;103193.59;5018871;28;46310;-67
2023/02/07 08:30:10;;;;;;;;;11.25;11.25;;;;;3.99;60.47;103214.25;5030289;28;45355;-67
2023/02/07 08:32:35;;;;;;;;;11.75;10.50;;;;;4.03;60.86;103221.47;5021901;28;45808;-67
2023/02/07 08:35:01;;;;;;;;;12.00;10.00;;;;;4.01;60.63;103234.63;5028454;28;45893;-67
2023/02/07 08:37:26;;;;;;;;;15.00;10.50;;;;;3.96;60.49;103227.34;5031044;28;45524;-67
2023/02/07 08:39:52;;;;;;;;;13.50;10.50;;;;;4.01;60.79;103231.97;5027700;28;45580;-69
2023/02/07 08:42:19;;;;;;;;;14.25;12.50;;;;;3.88;60.81;103208.59;5033696;28;46440;-69
2023/02/07 08:44:46;;;;;;;;;11.75;8.50;;;;;3.81;60.68;103193.34;5034608;28;45326;-68
2023/02/07 08:47:16;;;;;;;;;9.25;6.25;;;;;3.88;60.10;103206.84;5030301;28;45378;-68
2023/02/07 08:49:42;;;;;;;;;7.00;7.00;;;;;4.01;60.38;103239.91;5029299;28;45716;-68
2023/02/07 08:52:08;;;;;;;;;12.75;9.50;;;;;3.89;60.36;103215.66;5035462;28;46293;-68
2023/02/07 08:54:34;;;;;;;;;9.25;8.75;;;;;3.83;60.27;103200.50;5029002;28;45422;-67
2023/02/07 08:57:02;;;;;;;;;12.00;11.00;;;;;3.87;60.57;103206.78;5025226;28;45363;-67
2023/02/07 08:59:27;;;;;;;;;12.75;12.75;;;;;3.90;60.06;103210.44;5030476;28;45431;-67
2023/02/07 09:01:53;;;;;;;;;15.50;11.25;;;;;4.04;60.24;103231.16;5034380;28;45307;-67
2023/02/07 09:04:26;;;;;;;;;13.50;8.75;;;;;4.00;60.06;103203.72;5035112;28;45643;-67
2023/02/07 09:06:51;;;;;;;;;2.00;0.00;;;;;4.04;60.62;103215.31;5028687;28;45486;-67
2023/02/07 09:09:17;;;;;;;;;15.25;10.00;;;;;4.07;60.06;103220.69;5032258;28;45473;-67
2023/02/07 09:11:45;;;;;;;;;12.00;10.50;;;;;3.98;60.51;103205.44;5025691;28;46478;-67
2023/02/07 09:14:11;;;;;;;;;18.00;11.00;;;;;4.08;59.97;103218.09;5036219;28;45869;-67
2023/02/07 09:16:36;;;;;;;;;12.75;8.50;;;;;4.04;60.38;103204.72;5031492;28;45544;-67
2023/02/07 09:19:02;;;;;;;;;15.50;11.00;;;;;4.07;60.15;103229.50;5028098;28;45425;-67
2023/02/07 09:21:30;;;;;;;;;12.25;8.25;;;;;4.00;60.28;103227.53;5032559;28;47014;-67
2023/02/07 09:23:55;;;;;;;;;12.00;10.75;;;;;4.12;59.23;103247.28;5036841;28;45418;-67
2023/02/07 09:26:25;;;;;;;;;14.75;12.00;;;;;4.05;60.40;103225.94;5034518;28;45319;-67
2023/02/07 09:28:52;;;;;;;;;13.00;11.75;;;;;4.13;60.12;103235.88;5024179;28;45453;-67
2023/02/07 09:31:18;;;;;;;;;11.00;10.25;;;;;4.15;59.65;103243.00;5034274;28;46154;-67
2023/02/07 09:33:43;;;;;;;;;5.00;5.00;;;;;3.95;59.58;103218.53;5027806;28;45655;-66
2023/02/07 09:36:24;;;;;;;;;13.75;9.00;;;;;4.11;59.77;103241.13;5048523;28;45517;-67
2023/02/07 09:38:50;;;;;;;;;8.25;5.00;;;;;4.13;59.43;103246.47;5028574;28;45700;-68
2023/02/07 09:42:11;;;;;;;;;8.50;8.00;;;;;4.22;58.43;103254.69;5028750;28;45806;-68
2023/02/07 09:44:47;;;;;;;;;13.00;8.50;;;;;4.18;59.16;103266.03;5024500;28;45798;-68
2023/02/07 09:47:22;;;;;;;;;8.75;6.50;;;;;4.19;59.07;103271.38;5023770;28;46556;-68
2023/02/07 09:49:56;;;;;;;;;8.25;6.00;;;;;4.20;58.68;103272.25;5025465;28;45541;-69
2023/02/07 09:52:27;;;;;;;;;12.00;9.75;;;;;4.23;59.09;103275.91;5023358;28;45500;-68
2023/02/07 09:54:55;;;;;;;;;9.00;8.50;;;;;4.17;58.43;103261.56;5021202;28;46017;-68
2023/02/07 09:57:30;;;;;;;;;11.75;7.50;;;;;4.08;59.17;103246.28;5017125;28;45500;-68
2023/02/07 10:00:09;;;;;;;;;10.75;9.25;;;;;4.30;58.90;103281.41;5018387;28;45265;-68
2023/02/07 10:02:54;;;;;;;;;12.75;10.25;;;;;4.31;59.02;103280.53;5033223;28;45475;-68
2023/02/07 10:05:51;;;;;;;;;19.75;10.00;;;;;4.37;58.21;103279.00;5036173;28;45840;-68
2023/02/07 10:08:18;;;;;;;;;8.00;8.00;;;;;4.29;58.66;103255.81;5028085;28;45315;-66
2023/02/07 10:11:33;;;;;;;;;13.50;10.25;;;;;4.47;58.87;103271.41;5033641;28;45520;-66
2023/02/07 10:14:26;;;;;;;;;13.00;12.00;;;;;4.48;58.92;103262.59;4993519;28;47607;-66
2023/02/07 10:17:04;;;;;;;;;12.00;10.25;;;;;4.63;57.85;103282.53;5026062;28;45534;-66
2023/02/07 10:19:57;;;;;;;;;13.00;9.75;;;;;4.60;58.73;103270.97;5032820;28;45473;-67
2023/02/07 10:22:54;;;;;;;;;9.75;8.50;;;;;4.62;57.97;103283.38;5029809;28;45803;-66
2023/02/07 10:25:32;;;;;;;;;13.00;12.00;;;;;4.50;58.25;103259.16;5027717;28;45947;-67
2023/02/07 10:28:25;;;;;;;;;9.75;8.25;;;;;4.69;58.03;103276.53;5037577;28;45260;-66
2023/02/07 10:31:01;;;;;;;;;13.75;12.50;;;;;4.66;58.33;103260.59;5033818;28;45758;-66
2023/02/07 10:33:31;;;;;;;;;16.25;10.50;;;;;4.74;57.84;103271.41;5030256;28;45532;-66
2023/02/07 10:36:02;;;;;;;;;9.75;9.75;;;;;4.68;57.65;103252.66;5035634;28;46262;-66
2023/02/07 10:38:48;;;;;;;;;10.00;9.25;;;;;4.80;57.70;103255.72;5034676;28;45418;-66
2023/02/07 10:41:20;;;;;;;;;12.50;12.50;;;;;4.71;57.64;103248.41;5029434;28;45883;-66
2023/02/07 10:43:47;;;;;;;;;13.50;10.50;;;;;4.70;57.25;103243.06;5032369;28;45469;-66
2023/02/07 10:46:15;;;;;;;;;12.75;9.00;;;;;4.79;57.35;103265.41;5034793;28;45475;-66
2023/02/07 10:48:43;;;;;;;;;9.75;9.00;;;;;4.65;56.77;103253.47;5025599;28;45402;-66
2023/02/07 10:51:26;;;;;;;;;11.50;10.00;;;;;4.81;57.19;103262.78;5029990;28;45601;-64
2023/02/07 10:54:13;;;;;;;;;10.50;9.75;;;;;4.80;56.89;103267.19;5026990;28;45373;-64
2023/02/07 10:56:52;;;;;;;;;9.00;8.75;;;;;4.87;57.27;103263.00;5032850;28;46047;-64
2023/02/07 10:59:45;;;;;;;;;12.75;12.75;;;;;4.93;57.21;103257.91;5039737;28;45490;-64
2023/02/07 11:02:32;;;;;;;;;12.25;12.25;;;;;4.98;56.81;103263.34;5038615;28;45860;-66
2023/02/07 11:04:58;;;;;;;;;13.00;13.00;;;;;5.04;56.76;103258.22;5040681;28;45600;-66
2023/02/07 11:07:25;;;;;;;;;13.50;10.25;;;;;5.13;56.49;103269.13;5038294;28;46478;-66
2023/02/07 11:10:18;;;;;;;;;16.00;13.00;;;;;5.03;56.90;103237.91;5040251;28;45457;-66
2023/02/07 11:12:46;;;;;;;;;14.25;10.00;;;;;5.29;56.24;103261.63;5019360;28;45436;-66
2023/02/07 11:15:19;;;;;;;;;18.25;14.75;;;;;5.33;56.44;103255.56;5039132;28;45604;-66
2023/02/07 11:17:49;;;;;;;;;10.75;10.00;;;;;5.36;55.91;103253.00;5040847;28;45409;-66
2023/02/07 11:20:25;;;;;;;;;10.75;10.75;;;;;5.42;56.44;103257.59;5040200;28;45532;-66
2023/02/07 11:22:53;;;;;;;;;10.75;10.75;;;;;5.34;56.62;103231.75;5031703;28;45477;-66
2023/02/07 11:25:30;;;;;;;;;17.25;13.75;;;;;5.47;56.07;103240.97;5040236;28;45272;-66
2023/02/07 11:27:57;;;;;;;;;9.75;9.00;;;;;5.53;55.92;103225.25;5024830;28;45545;-66
2023/02/07 11:30:27;;;;;;;;;11.50;10.00;;;;;5.68;55.94;103231.81;5036000;28;45769;-66
2023/02/07 11:33:08;;;;;;;;;16.50;11.50;;;;;5.72;55.88;103231.06;5028764;28;45523;-66
2023/02/07 11:35:34;;;;;;;;;10.50;9.25;;;;;5.69;54.90;103215.09;5036024;28;45414;-66
2023/02/07 11:38:12;;;;;;;;;16.25;9.00;;;;;5.84;55.53;103214.59;5030355;28;46315;-66
2023/02/07 11:40:46;;;;;;;;;15.50;15.00;;;;;5.88;54.87;103219.13;5031384;28;45492;-66
2023/02/07 11:43:16;;;;;;;;;17.25;16.25;;;;;5.93;55.55;103221.06;5019568;28;45337;-66
2023/02/07 11:45:45;;;;;;;;;13.50;12.75;;;;;6.06;55.43;103219.63;5028719;28;45433;-66
2023/02/07 11:48:38;;;;;;;;;14.50;12.75;;;;;6.18;54.82;103221.75;5021061;28;45345;-66
2023/02/07 11:51:07;;;;;;;;;12.75;12.75;;;;;6.13;54.86;103212.75;5033978;28;45341;-66
2023/02/07 11:53:40;;;;;;;;;12.75;11.00;;;;;6.25;54.53;103228.97;5026491;28;45433;-66
2023/02/07 11:56:20;;;;;;;;;6.00;5.25;;;;;6.14;54.47;103208.34;5040016;28;45451;-66
2023/02/07 11:58:45;;;;;;;;;15.50;14.50;;;;;6.08;54.61;103198.47;5022395;28;45531;-66
2023/02/07 12:01:16;;;;;;;;;14.50;13.25;;;;;6.22;54.28;103220.06;5035205;28;45469;-66
2023/02/07 12:03:49;;;;;;;;;13.50;12.00;;;;;6.24;53.98;103221.88;5028480;28;45323;-66
2023/02/07 12:06:18;;;;;;;;;11.50;10.00;;;;;6.27;53.78;103218.41;5033967;28;45420;-66
2023/02/07 12:08:45;;;;;;;;;12.25;12.25;;;;;6.33;54.29;103218.56;5028166;28;47599;-66
2023/02/07 12:11:16;;;;;;;;;14.50;14.00;;;;;6.34;54.03;103209.75;5028635;28;45497;-66
2023/02/07 12:13:48;;;;;;;;;15.00;14.00;;;;;6.41;53.78;103227.59;5035874;28;45377;-66
2023/02/07 12:16:23;;;;;;;;;12.00;11.00;;;;;6.38;53.05;103230.19;5037515;28;45525;-66
2023/02/07 12:18:58;;;;;;;;;15.50;12.75;;;;;6.37;53.23;103224.84;5026149;28;45489;-66
2023/02/07 12:21:33;;;;;;;;;10.25;10.25;;;;;6.33;53.19;103201.75;5029100;28;45559;-66